Time;durP1;ratioP1;P1;durP2;ratioP2;P2;SDS_P1;SDS_P2;PMS_P1;PMS_P2;Temp;Humidity;BMP_temperature;BMP_pressure;BME280_temperature;BME280_humidity;BME280_pressure;Samples;Min_cycle;Max_cycle;Signal;HPM_P1;HPM_P2
2022/03/24 00:01:51;;;;;;;65.07;22.20;;;;;;;3.48;38.98;100031.31;5073357;28;20097;-52
2022/03/24 00:04:17;;;;;;;62.72;21.25;;;;;;;3.47;39.33;100028.72;5055201;28;20064;-51
2022/03/24 00:06:43;;;;;;;65.93;22.67;;;;;;;3.44;39.52;100032.41;5073134;28;20466;-51
2022/03/24 00:09:08;;;;;;;58.35;20.23;;;;;;;3.43;39.29;100020.94;5072643;28;20106;-48
2022/03/24 00:11:34;;;;;;;65.82;20.35;;;;;;;3.27;39.51;99997.00;5073169;28;20588;-48
2022/03/24 00:14:00;;;;;;;54.25;18.45;;;;;;;3.24;39.33;99994.50;5073250;28;20062;-50
2022/03/24 00:16:26;;;;;;;67.68;21.55;;;;;;;3.39;39.48;100011.44;5072949;28;20393;-50
2022/03/24 00:18:52;;;;;;;67.30;22.20;;;;;;;3.37;39.50;100010.66;5072436;28;20032;-48
2022/03/24 00:21:18;;;;;;;63.08;20.85;;;;;;;3.12;39.69;99976.53;5072688;28;20025;-52
2022/03/24 00:23:44;;;;;;;58.72;19.15;;;;;;;3.34;40.08;100001.97;5073166;28;20115;-53
2022/03/24 00:26:09;;;;;;;61.00;21.05;;;;;;;3.21;40.01;99981.41;5072613;28;20440;-50
2022/03/24 00:28:35;;;;;;;73.55;20.63;;;;;;;3.28;40.02;100005.81;5053897;28;20067;-52
2022/03/24 00:31:02;;;;;;;58.90;19.80;;;;;;;3.25;40.35;100005.91;5072545;28;20089;-52
2022/03/24 00:33:28;;;;;;;58.63;22.25;;;;;;;3.20;40.34;100000.88;5072863;28;20433;-55
2022/03/24 00:35:55;;;;;;;63.83;23.33;;;;;;;3.16;40.85;99994.00;5072170;28;20131;-50
2022/03/24 00:38:20;;;;;;;62.78;23.73;;;;;;;3.12;40.52;99989.75;5072481;28;20445;-52
2022/03/24 00:40:46;;;;;;;58.08;22.63;;;;;;;3.12;40.80;99992.41;5071566;28;20060;-53
2022/03/24 00:43:12;;;;;;;65.45;22.25;;;;;;;3.11;41.32;99990.69;5054431;28;20039;-54
2022/03/24 00:45:40;;;;;;;79.65;24.10;;;;;;;3.08;40.75;99980.25;5072183;28;20032;-52
2022/03/24 00:48:09;;;;;;;60.00;23.77;;;;;;;3.03;41.00;99976.97;5071917;28;20121;-55
2022/03/24 00:50:38;;;;;;;68.63;24.52;;;;;;;3.08;40.88;99988.19;5071939;28;20079;-54
2022/03/24 00:53:03;;;;;;;73.60;24.88;;;;;;;3.06;41.20;99979.47;5054067;28;20492;-52
2022/03/24 00:55:30;;;;;;;70.57;24.17;;;;;;;3.03;41.38;99977.84;5071558;28;20090;-55
2022/03/24 00:57:56;;;;;;;60.25;23.15;;;;;;;3.06;41.08;99988.28;5072009;28;20032;-51
2022/03/24 01:00:25;;;;;;;71.78;24.15;;;;;;;3.09;41.12;99976.69;5071720;28;20103;-51
2022/03/24 01:02:53;;;;;;;58.85;23.10;;;;;;;3.09;41.04;99979.34;5071743;28;20090;-53
2022/03/24 01:05:20;;;;;;;65.07;24.67;;;;;;;3.08;41.32;99978.50;5072083;28;20347;-54
2022/03/24 01:07:46;;;;;;;66.32;24.73;;;;;;;2.87;41.32;99938.03;5071617;28;20025;-48
2022/03/24 01:10:16;;;;;;;57.72;23.10;;;;;;;3.12;41.57;99971.25;5071656;28;20028;-52
2022/03/24 01:12:42;;;;;;;68.53;24.38;;;;;;;3.09;41.54;99972.28;5071897;28;20047;-47
2022/03/24 01:15:14;;;;;;;70.53;23.25;;;;;;;3.15;41.28;99965.84;5071450;28;20429;-49
2022/03/24 01:17:40;;;;;;;69.60;25.25;;;;;;;3.11;41.66;99958.94;5071249;28;20070;-52
2022/03/24 01:20:07;;;;;;;68.20;26.45;;;;;;;3.13;41.80;99963.25;5071728;28;20040;-49
2022/03/24 01:22:33;;;;;;;75.55;26.83;;;;;;;3.09;41.67;99951.09;5071675;28;20482;-49
2022/03/24 01:24:59;;;;;;;63.22;25.85;;;;;;;3.13;41.89;99962.38;5071273;28;20038;-54
2022/03/24 01:27:28;;;;;;;69.63;26.23;;;;;;;2.96;41.69;99928.78;5071374;28;20444;-50
2022/03/24 01:29:56;;;;;;;66.20;25.02;;;;;;;3.13;42.08;99962.38;5071877;28;20109;-52
2022/03/24 01:32:23;;;;;;;64.05;26.70;;;;;;;3.12;42.19;99950.97;5071469;28;20025;-54
2022/03/24 01:34:50;;;;;;;69.22;25.63;;;;;;;3.06;42.42;99953.91;5071142;28;20060;-51
2022/03/24 01:37:17;;;;;;;65.10;22.63;;;;;;;3.04;42.29;99947.81;5071759;28;20060;-49
2022/03/24 01:39:42;;;;;;;63.45;23.23;;;;;;;3.10;42.17;99952.81;5071665;28;20501;-52
2022/03/24 01:42:08;;;;;;;54.38;21.98;;;;;;;3.08;42.22;99940.59;5071162;28;20068;-54
2022/03/24 01:44:33;;;;;;;62.38;22.23;;;;;;;3.09;42.19;99943.16;5071143;28;20107;-55
2022/03/24 01:47:05;;;;;;;58.17;21.55;;;;;;;3.09;42.23;99955.53;5071298;28;20024;-54
2022/03/24 01:49:33;;;;;;;67.03;22.00;;;;;;;3.07;42.40;99944.16;5071595;28;20446;-51
2022/03/24 01:51:59;;;;;;;64.40;22.45;;;;;;;3.03;42.55;99950.53;5053050;28;20111;-53
2022/03/24 01:54:30;;;;;;;68.13;23.13;;;;;;;2.96;42.38;99939.38;5070741;28;20541;-56
2022/03/24 01:56:57;;;;;;;68.00;22.95;;;;;;;2.96;42.81;99942.91;5071295;28;20048;-54
2022/03/24 01:59:24;;;;;;;61.33;22.83;;;;;;;2.93;42.79;99943.03;5071256;28;20032;-54
2022/03/24 02:01:50;;;;;;;56.63;23.13;;;;;;;2.89;42.79;99941.44;5070969;28;20040;-55
2022/03/24 02:04:16;;;;;;;63.50;22.38;;;;;;;2.87;43.06;99945.94;5052622;28;20067;-51
2022/03/24 02:06:42;;;;;;;54.30;22.10;;;;;;;2.84;43.03;99936.41;5071193;28;20107;-55
2022/03/24 02:09:08;;;;;;;68.38;22.45;;;;;;;2.63;43.23;99903.88;5071362;28;20512;-53
2022/03/24 02:11:34;;;;;;;66.88;22.35;;;;;;;2.82;43.38;99938.25;5070955;28;20032;-49
2022/03/24 02:14:01;;;;;;;62.78;23.08;;;;;;;2.53;43.56;99892.88;5070651;28;20036;-49
2022/03/24 02:16:34;;;;;;;57.75;21.90;;;;;;;2.79;43.39;99933.13;5071316;28;20028;-52
2022/03/24 02:19:17;;;;;;;65.35;22.48;;;;;;;2.82;43.21;99937.38;5071291;28;20032;-54
2022/03/24 02:21:45;;;;;;;58.10;21.73;;;;;;;2.72;43.57;99927.25;5071024;28;20033;-54
2022/03/24 02:24:13;;;;;;;58.13;21.20;;;;;;;2.70;44.06;99929.09;5070614;28;20101;-51
2022/03/24 02:26:40;;;;;;;65.32;21.17;;;;;;;2.63;43.83;99917.06;5070848;28;20399;-52
2022/03/24 02:29:06;;;;;;;67.10;22.45;;;;;;;2.65;44.05;99924.94;5070887;28;20123;-47
2022/03/24 02:31:34;;;;;;;67.00;22.52;;;;;;;2.64;44.31;99916.16;5070482;28;20032;-54
2022/03/24 02:36:47;;;;;;;58.67;21.42;;;;;;;2.60;44.36;99914.59;5070279;28;20075;-53
2022/03/24 02:39:12;;;;;;;64.45;21.88;;;;;;;2.60;44.39;99908.44;5070433;28;20100;-54
2022/03/24 02:41:46;;;;;;;66.20;21.10;;;;;;;2.59;44.02;99899.66;5069504;28;20025;-56
2022/03/24 02:44:14;;;;;;;67.13;22.08;;;;;;;2.57;44.51;99912.97;5060933;28;20339;-55
2022/03/24 02:46:47;;;;;;;56.83;20.00;;;;;;;2.40;44.68;99881.16;5069393;28;20039;-56
2022/03/24 02:49:13;;;;;;;64.00;21.48;;;;;;;2.52;44.63;99908.81;5069093;28;20029;-53
2022/03/24 02:51:39;;;;;;;59.83;23.05;;;;;;;2.50;44.64;99913.31;5068857;28;20032;-52
2022/03/24 02:54:05;;;;;;;71.80;22.30;;;;;;;2.48;44.86;99905.44;5069094;28;20036;-51
2022/03/24 02:56:30;;;;;;;63.22;21.38;;;;;;;2.47;44.76;99901.06;5051122;28;20068;-51
2022/03/24 02:58:56;;;;;;;63.60;22.05;;;;;;;2.45;45.13;99897.66;5069785;28;20077;-52
2022/03/24 03:01:25;;;;;;;49.70;19.27;;;;;;;2.50;45.13;99905.38;5070793;28;20032;-55
2022/03/24 03:03:52;;;;;;;54.00;18.83;;;;;;;2.52;45.16;99898.22;5072259;28;20497;-54
2022/03/24 03:06:19;;;;;;;66.38;21.67;;;;;;;2.54;45.20;99896.38;5074060;28;20044;-56
2022/03/24 03:08:46;;;;;;;61.47;22.30;;;;;;;2.58;45.03;99900.59;5074394;28;20060;-54
2022/03/24 03:11:12;;;;;;;64.63;19.83;;;;;;;2.52;45.07;99890.31;5073683;28;20025;-53
2022/03/24 03:13:38;;;;;;;64.18;21.65;;;;;;;2.57;44.73;99897.09;5073627;28;20036;-56
2022/03/24 03:16:04;;;;;;;70.85;22.88;;;;;;;2.57;45.36;99902.38;5074179;28;20043;-52
2022/03/24 03:18:32;;;;;;;62.35;22.40;;;;;;;2.52;45.33;99887.66;5073927;28;20107;-49
2022/03/24 03:20:59;;;;;;;61.35;21.63;;;;;;;2.58;45.34;99892.66;5073446;28;20028;-56
2022/03/24 03:23:25;;;;;;;56.92;21.85;;;;;;;2.40;45.59;99858.22;5073889;28;20103;-57
2022/03/24 03:25:52;;;;;;;72.32;23.20;;;;;;;2.49;45.53;99875.44;5074508;28;20031;-55
2022/03/24 03:28:18;;;;;;;76.25;24.55;;;;;;;2.35;45.72;99846.16;5073509;28;20036;-55
2022/03/24 03:30:44;;;;;;;74.15;23.58;;;;;;;2.61;45.64;99895.16;5073451;28;20032;-52
2022/03/24 03:33:11;;;;;;;72.55;23.60;;;;;;;2.69;45.33;99881.56;5073544;28;20471;-53
2022/03/24 03:35:37;;;;;;;76.00;23.30;;;;;;;2.77;45.35;99882.06;5074122;28;20355;-54
2022/03/24 03:38:03;;;;;;;57.10;19.27;;;;;;;2.89;45.48;99875.34;5073282;28;20048;-55
2022/03/24 03:40:29;;;;;;;60.28;18.58;;;;;;;3.04;45.29;99879.06;5073283;28;20033;-52
2022/03/24 03:42:55;;;;;;;83.30;23.60;;;;;;;3.19;44.55;99874.81;5074008;28;20393;-52
2022/03/24 03:45:21;;;;;;;57.75;24.17;;;;;;;3.35;44.11;99884.59;5073717;28;20103;-52
2022/03/24 03:47:47;;;;;;;64.93;21.40;;;;;;;3.52;43.84;99884.63;5073029;28;20024;-53
2022/03/24 03:50:12;;;;;;;57.53;20.10;;;;;;;3.68;44.44;99873.25;5072841;28;20073;-57
2022/03/24 03:52:38;;;;;;;63.40;22.02;;;;;;;3.85;43.25;99875.88;5073506;28;20138;-57
2022/03/24 03:55:04;;;;;;;54.85;20.48;;;;;;;4.06;43.43;99885.44;5055643;28;20036;-54
2022/03/24 03:57:30;;;;;;;53.03;17.88;;;;;;;4.21;43.42;99876.66;5072976;28;20556;-52
2022/03/24 03:59:56;;;;;;;62.55;21.25;;;;;;;4.45;42.04;99871.84;5072898;28;20159;-55
2022/03/24 04:02:21;;;;;;;62.60;23.38;;;;;;;4.66;42.02;99865.44;5073516;28;20063;-51
2022/03/24 04:04:47;;;;;;;61.90;23.67;;;;;;;4.84;41.39;99858.28;5073264;28;20809;-57
2022/03/24 04:07:13;;;;;;;63.60;22.25;;;;;;;5.49;40.56;99853.72;5055116;28;20036;-56
2022/03/24 04:09:38;;;;;;;69.50;23.58;;;;;;;7.09;37.40;99862.50;5072744;28;20186;-55
2022/03/24 04:12:05;;;;;;;58.20;21.52;;;;;;;8.55;34.55;99860.63;5073259;28;20036;-55
2022/03/24 04:14:32;;;;;;;61.92;22.33;;;;;;;9.56;32.46;99826.56;5073214;28;20512;-55
2022/03/24 04:16:58;;;;;;;75.68;25.67;;;;;;;10.77;30.25;99850.09;5073262;28;20040;-56
2022/03/24 04:19:25;;;;;;;55.00;20.50;;;;;;;11.74;28.88;99859.13;5072530;28;20031;-54
2022/03/24 04:21:51;;;;;;;58.13;22.20;;;;;;;12.29;27.13;99851.81;5072621;28;20055;-56
2022/03/24 04:24:17;;;;;;;53.22;21.05;;;;;;;12.69;27.14;99845.63;5072965;28;20455;-53
2022/03/24 04:26:42;;;;;;;49.80;19.05;;;;;;;13.12;25.85;99843.56;5072301;28;20024;-54
2022/03/24 04:29:08;;;;;;;52.38;21.10;;;;;;;13.57;25.91;99847.59;5072537;28;20103;-51
2022/03/24 04:31:34;;;;;;;59.08;20.20;;;;;;;13.99;24.64;99842.84;5071483;28;20028;-55
2022/03/24 04:34:00;;;;;;;51.28;19.75;;;;;;;14.32;23.95;99786.75;5071911;28;20127;-51
2022/03/24 04:36:25;;;;;;;50.75;18.83;;;;;;;15.48;22.31;99836.50;5072095;28;20132;-53
2022/03/24 04:38:51;;;;;;;51.92;18.40;;;;;;;16.16;21.25;99837.69;5052288;28;20488;-55
2022/03/24 04:41:16;;;;;;;48.90;19.02;;;;;;;16.66;21.15;99835.22;5071646;28;20028;-53
2022/03/24 04:43:42;;;;;;;43.00;19.55;;;;;;;17.12;19.99;99837.56;5071540;28;20375;-52
2022/03/24 04:46:08;;;;;;;38.97;16.98;;;;;;;18.01;18.35;99833.31;5071283;28;20032;-56
2022/03/24 04:48:35;;;;;;;39.15;17.70;;;;;;;18.86;17.27;99799.28;5071676;28;20028;-49
2022/03/24 04:51:03;;;;;;;39.58;17.77;;;;;;;19.78;17.17;99840.22;5071724;28;20108;-56
2022/03/24 04:53:29;;;;;;;48.10;18.42;;;;;;;20.11;15.70;99836.34;5071563;28;20033;-57
2022/03/24 04:55:55;;;;;;;45.28;17.65;;;;;;;20.45;15.46;99841.22;5071684;28;20486;-55
2022/03/24 04:58:20;;;;;;;39.83;18.40;;;;;;;20.92;15.02;99824.66;5071664;28;20107;-57
2022/03/24 05:00:46;;;;;;;37.83;17.55;;;;;;;21.43;14.47;99839.22;5071809;28;20339;-55
2022/03/24 05:03:11;;;;;;;44.08;17.85;;;;;;;21.82;13.99;99840.66;5070875;28;20064;-58
2022/03/24 05:05:37;;;;;;;38.50;17.50;;;;;;;22.58;13.22;99821.84;5071536;28;20462;-59
2022/03/24 05:08:03;;;;;;;44.35;18.80;;;;;;;23.53;12.64;99829.25;5071562;28;20024;-57
2022/03/24 05:10:29;;;;;;;40.20;18.48;;;;;;;24.40;11.92;99828.34;5072325;28;20035;-55
2022/03/24 05:12:55;;;;;;;40.10;18.50;;;;;;;25.22;11.37;99830.50;5072329;28;20029;-56
2022/03/24 05:15:22;;;;;;;41.15;18.90;;;;;;;25.98;10.36;99826.13;5071310;28;20040;-52
2022/03/24 05:17:47;;;;;;;40.78;20.15;;;;;;;26.69;9.99;99821.16;5071516;28;20466;-57
2022/03/24 05:20:14;;;;;;;48.80;19.60;;;;;;;27.41;9.43;99827.78;5071897;28;20035;-55
2022/03/24 05:22:39;;;;;;;37.95;19.73;;;;;;;28.12;8.92;99832.53;5071617;28;20043;-55
2022/03/24 05:25:06;;;;;;;53.03;22.02;;;;;;;28.79;8.62;99834.03;5071395;28;20331;-57
2022/03/24 05:27:32;;;;;;;53.20;21.67;;;;;;;29.32;8.25;99831.13;5053382;28;20025;-56
2022/03/24 05:29:58;;;;;;;48.10;22.48;;;;;;;29.68;7.84;99813.56;5071865;28;20518;-59
2022/03/24 05:32:23;;;;;;;41.63;21.17;;;;;;;30.09;7.73;99819.72;5071504;28;20115;-52
2022/03/24 05:34:49;;;;;;;46.88;21.58;;;;;;;30.65;7.25;99827.13;5070842;28;20059;-53
2022/03/24 05:37:15;;;;;;;48.17;22.40;;;;;;;31.19;7.16;99825.50;5071361;28;20162;-57
2022/03/24 05:39:42;;;;;;;54.83;23.75;;;;;;;31.71;6.78;99825.97;5071892;28;20492;-57
2022/03/24 05:42:08;;;;;;;45.67;23.60;;;;;;;32.01;6.63;99794.06;5071565;28;20040;-59
2022/03/24 05:44:33;;;;;;;44.78;22.33;;;;;;;32.53;6.14;99824.84;5070491;28;20039;-59
2022/03/24 05:46:59;;;;;;;42.25;22.10;;;;;;;32.83;6.08;99826.06;5071384;28;20032;-56
2022/03/24 05:49:26;;;;;;;38.03;21.92;;;;;;;33.23;5.82;99835.59;5070878;28;20094;-56
2022/03/24 05:51:52;;;;;;;48.80;23.27;;;;;;;33.56;5.45;99836.22;5071330;28;20034;-60
2022/03/24 05:54:18;;;;;;;35.40;21.85;;;;;;;33.99;5.23;99837.84;5052575;28;20028;-61
2022/03/24 05:56:49;;;;;;;48.65;22.17;;;;;;;34.55;5.72;99833.28;5070947;28;20385;-61
2022/03/24 05:59:15;;;;;;;45.35;22.13;;;;;;;34.61;5.02;99827.44;5070811;28;20029;-53
2022/03/24 06:01:44;;;;;;;45.00;22.15;;;;;;;34.95;5.10;99827.81;5070777;28;20032;-55
2022/03/24 06:04:13;;;;;;;44.47;21.58;;;;;;;34.74;4.63;99839.03;5070805;28;20045;-58
2022/03/24 06:06:40;;;;;;;46.13;22.13;;;;;;;34.84;4.71;99835.38;5070825;28;20030;-56
2022/03/24 06:09:06;;;;;;;43.10;20.02;;;;;;;34.32;4.69;99827.22;5071375;28;20040;-53
2022/03/24 06:11:35;;;;;;;45.13;20.92;;;;;;;34.57;4.70;99837.44;5070468;28;20020;-57
2022/03/24 06:14:02;;;;;;;44.60;20.92;;;;;;;35.20;4.31;99829.59;5070196;28;20523;-54
2022/03/24 06:16:27;;;;;;;47.10;21.17;;;;;;;35.81;4.12;99830.25;5070570;28;20119;-55
2022/03/24 06:18:53;;;;;;;39.60;21.67;;;;;;;36.29;4.01;99834.25;5070784;28;20086;-57
2022/03/24 06:21:19;;;;;;;51.20;20.88;;;;;;;36.67;3.91;99827.94;5069449;28;20441;-54
2022/03/24 06:23:44;;;;;;;43.58;21.90;;;;;;;37.08;3.89;99832.13;5068022;28;20035;-55
2022/03/24 06:26:10;;;;;;;49.10;22.90;;;;;;;37.38;3.24;99843.94;5068333;28;20424;-55
2022/03/24 06:28:36;;;;;;;45.63;22.45;;;;;;;37.32;3.30;99795.75;5068380;28;20029;-54
2022/03/24 06:31:02;;;;;;;43.60;22.88;;;;;;;37.53;3.24;99837.34;5069028;28;20025;-57
2022/03/24 06:33:28;;;;;;;44.97;22.05;;;;;;;37.51;3.09;99840.41;5068131;28;20048;-55
2022/03/24 06:35:54;;;;;;;48.08;21.98;;;;;;;38.08;3.29;99839.44;5068213;28;20123;-58
2022/03/24 06:38:20;;;;;;;49.78;22.65;;;;;;;38.14;3.33;99841.00;5053423;28;20086;-59
2022/03/24 06:40:45;;;;;;;41.80;21.77;;;;;;;38.28;3.13;99842.97;5074199;28;20059;-55
2022/03/24 06:43:11;;;;;;;42.65;22.52;;;;;;;38.53;3.13;99843.59;5056586;28;20025;-56
2022/03/24 06:45:37;;;;;;;44.30;21.77;;;;;;;38.77;2.73;99840.59;5074582;28;20055;-58
2022/03/24 06:48:07;;;;;;;43.92;21.98;;;;;;;38.93;2.68;99838.28;5074128;28;20041;-55
2022/03/24 06:50:33;;;;;;;42.53;20.52;;;;;;;39.12;2.62;99842.91;5074984;28;20032;-54
2022/03/24 06:52:59;;;;;;;42.22;20.77;;;;;;;39.29;2.25;99825.41;5074226;28;20029;-55
2022/03/24 06:55:24;;;;;;;35.20;20.80;;;;;;;39.90;2.44;99842.66;5073576;28;20034;-55
2022/03/24 06:57:50;;;;;;;47.28;22.52;;;;;;;40.17;2.10;99834.38;5074263;28;20062;-57
2022/03/24 07:00:16;;;;;;;36.00;19.60;;;;;;;40.56;1.95;99840.31;5056490;28;20102;-56
2022/03/24 07:02:42;;;;;;;44.25;19.40;;;;;;;40.75;2.05;99821.22;5073934;28;20070;-56
2022/03/24 07:05:08;;;;;;;41.33;19.90;;;;;;;40.61;1.92;99835.34;5073999;28;20105;-54
2022/03/24 07:07:34;;;;;;;36.35;19.15;;;;;;;40.99;1.55;99850.78;5074768;28;20033;-57
2022/03/24 07:10:01;;;;;;;36.90;19.08;;;;;;;40.74;1.98;99825.16;5073828;28;20454;-59
2022/03/24 07:12:26;;;;;;;36.40;18.23;;;;;;;40.71;1.84;99842.66;5073657;28;20051;-57
2022/03/24 07:14:52;;;;;;;35.88;18.17;;;;;;;40.68;1.74;99842.47;5074087;28;20451;-52
2022/03/24 07:17:19;;;;;;;34.95;17.92;;;;;;;41.03;1.46;99818.13;5056386;28;20025;-56
2022/03/24 07:19:45;;;;;;;38.03;19.65;;;;;;;40.94;1.44;99839.72;5073667;28;20031;-54
2022/03/24 07:22:11;;;;;;;38.67;18.92;;;;;;;41.12;1.67;99839.75;5073693;28;20115;-56
2022/03/24 07:24:36;;;;;;;38.38;19.08;;;;;;;41.31;1.35;99837.44;5074373;28;20166;-58
2022/03/24 07:27:02;;;;;;;36.58;17.27;;;;;;;40.86;1.68;99846.16;5073936;28;20028;-60
2022/03/24 07:29:27;;;;;;;37.95;17.25;;;;;;;40.24;1.54;99848.75;5073451;28;20386;-58
2022/03/24 07:31:53;;;;;;;30.30;16.88;;;;;;;39.47;1.99;99840.41;5073532;28;20045;-56
2022/03/24 07:34:19;;;;;;;40.95;18.38;;;;;;;39.47;1.89;99840.41;5073842;28;20068;-53
2022/03/24 07:36:45;;;;;;;44.35;18.85;;;;;;;39.74;2.10;99849.78;5073905;28;20114;-56
2022/03/24 07:39:11;;;;;;;38.45;17.60;;;;;;;38.89;1.81;99842.84;5073537;28;20036;-55
2022/03/24 07:41:37;;;;;;;37.90;17.02;;;;;;;38.04;2.41;99852.38;5073394;28;20107;-55
2022/03/24 07:44:03;;;;;;;33.65;17.15;;;;;;;37.53;2.83;99840.94;5073616;28;20029;-58
2022/03/24 07:46:29;;;;;;;34.25;16.92;;;;;;;37.65;2.83;99840.47;5073523;28;20025;-56
2022/03/24 07:48:54;;;;;;;34.53;16.73;;;;;;;38.11;2.74;99830.44;5072926;28;20112;-57
2022/03/24 07:51:20;;;;;;;33.22;16.20;;;;;;;38.20;2.46;99838.91;5073222;28;20063;-56
2022/03/24 07:53:49;;;;;;;34.35;17.02;;;;;;;38.02;2.57;99849.06;5073565;28;20466;-56
2022/03/24 07:56:20;;;;;;;41.85;17.15;;;;;;;37.83;2.75;99844.31;5073886;28;20040;-57
2022/03/24 07:58:45;;;;;;;34.65;17.30;;;;;;;37.34;2.85;99832.59;5055095;28;20466;-57
2022/03/24 08:01:12;;;;;;;37.50;17.75;;;;;;;36.43;2.97;99828.78;5055265;28;20031;-59
2022/03/24 08:03:37;;;;;;;38.38;16.83;;;;;;;35.02;3.58;99831.97;5073751;28;20029;-58
2022/03/24 08:06:03;;;;;;;36.63;17.98;;;;;;;32.86;4.99;99829.09;5073226;28;20115;-58
2022/03/24 08:08:29;;;;;;;36.60;15.65;;;;;;;30.22;5.59;99833.16;5054659;28;20467;-54
2022/03/24 08:10:55;;;;;;;39.05;17.13;;;;;;;27.56;6.89;99838.38;5072601;28;20031;-56
2022/03/24 08:13:22;;;;;;;27.48;16.13;;;;;;;25.04;8.49;99839.44;5073249;28;20031;-54
2022/03/24 08:15:48;;;;;;;33.70;16.38;;;;;;;22.97;9.62;99836.69;5072985;28;20025;-57
2022/03/24 08:18:15;;;;;;;30.25;16.20;;;;;;;21.37;10.52;99844.41;5072550;28;20533;-56
2022/03/24 08:20:42;;;;;;;39.67;16.58;;;;;;;20.20;11.59;99843.38;5072292;28;20082;-53
2022/03/24 08:23:09;;;;;;;38.63;15.32;;;;;;;19.32;12.30;99835.66;5072502;28;20174;-56
2022/03/24 08:25:35;;;;;;;21.25;11.00;;;;;;;18.70;12.32;99837.38;5072012;28;20119;-56
2022/03/24 08:28:00;;;;;;;23.42;10.75;;;;;;;18.06;12.63;99829.09;5072155;28;20043;-56
2022/03/24 08:30:26;;;;;;;16.65;9.60;;;;;;;17.42;13.00;99818.97;5054106;28;20037;-56
2022/03/24 08:32:52;;;;;;;21.67;10.32;;;;;;;17.08;13.41;99834.31;5072634;28;20032;-52
2022/03/24 08:35:17;;;;;;;24.25;8.18;;;;;;;16.76;13.27;99830.50;5072318;28;20032;-55
2022/03/24 08:37:43;;;;;;;13.45;8.70;;;;;;;16.50;13.43;99835.97;5054655;28;20121;-56
2022/03/24 08:40:10;;;;;;;18.48;10.30;;;;;;;16.05;14.13;99819.91;5072730;28;20056;-56
2022/03/24 08:42:38;;;;;;;14.13;8.20;;;;;;;15.86;14.10;99845.22;5072165;28;20431;-58
2022/03/24 08:45:05;;;;;;;17.42;7.70;;;;;;;15.49;14.08;99835.50;5071974;28;20185;-54
2022/03/24 08:47:31;;;;;;;12.85;7.22;;;;;;;15.28;14.36;99833.09;5054509;28;20028;-55
2022/03/24 08:49:57;;;;;;;24.67;10.05;;;;;;;14.96;15.14;99831.78;5071979;28;20043;-57
2022/03/24 08:52:23;;;;;;;16.08;7.70;;;;;;;14.83;14.82;99827.63;5071990;28;20339;-58
2022/03/24 08:54:49;;;;;;;13.98;7.15;;;;;;;14.64;15.12;99840.16;5072415;28;20032;-57
2022/03/24 08:57:15;;;;;;;17.75;7.05;;;;;;;14.50;15.27;99838.81;5071680;28;20029;-53
2022/03/24 08:59:40;;;;;;;17.83;9.13;;;;;;;14.44;15.73;99836.72;5072246;28;20035;-53
2022/03/24 09:02:06;;;;;;;17.30;8.90;;;;;;;14.21;15.81;99830.84;5071448;28;20028;-55
2022/03/24 09:04:31;;;;;;;17.13;10.05;;;;;;;14.11;16.53;99838.97;5071809;28;20036;-54
2022/03/24 09:06:57;;;;;;;31.58;10.38;;;;;;;14.08;16.42;99839.25;5071621;28;20043;-55
2022/03/24 09:09:22;;;;;;;21.27;9.15;;;;;;;14.19;16.63;99844.47;5071375;28;20029;-52
2022/03/24 09:11:51;;;;;;;17.08;7.32;;;;;;;14.37;15.94;99837.47;5071942;28;20071;-56
2022/03/24 09:14:17;;;;;;;11.45;6.60;;;;;;;14.43;15.11;99837.69;5071389;28;20033;-53
2022/03/24 09:16:44;;;;;;;5.25;3.60;;;;;;;14.46;14.10;99834.72;5071758;28;20476;-56
2022/03/24 09:19:10;;;;;;;9.50;4.60;;;;;;;14.45;14.65;99826.78;5071574;28;20032;-50
2022/03/24 09:21:36;;;;;;;15.32;5.70;;;;;;;14.44;14.73;99828.63;5072102;28;20044;-54
2022/03/24 09:24:02;;;;;;;10.13;6.05;;;;;;;14.43;15.01;99815.31;5071278;28;20029;-52
2022/03/24 09:26:27;;;;;;;13.98;6.10;;;;;;;14.54;14.83;99827.75;5071170;28;20029;-53
2022/03/24 09:28:53;;;;;;;17.08;7.53;;;;;;;14.62;15.14;99828.69;5071931;28;20047;-52
2022/03/24 09:31:19;;;;;;;15.18;7.68;;;;;;;14.59;15.47;99826.31;5053989;28;20024;-55
2022/03/24 09:33:45;;;;;;;20.25;8.13;;;;;;;14.55;15.68;99830.28;5053659;28;20144;-53
2022/03/24 09:36:11;;;;;;;12.57;6.75;;;;;;;14.54;15.19;99819.66;5070851;28;20497;-55
2022/03/24 09:38:37;;;;;;;13.23;7.65;;;;;;;14.56;15.41;99836.53;5071369;28;20036;-55
2022/03/24 09:41:05;;;;;;;14.63;7.60;;;;;;;14.56;15.40;99828.44;5071696;28;20036;-54
2022/03/24 09:43:34;;;;;;;13.95;7.82;;;;;;;14.47;15.33;99822.97;5071195;28;20033;-55
2022/03/24 09:46:01;;;;;;;13.80;7.15;;;;;;;14.58;15.44;99838.06;5070968;28;20036;-55
2022/03/24 09:48:27;;;;;;;14.27;7.22;;;;;;;14.52;15.26;99829.75;5071226;28;20028;-55
2022/03/24 09:50:54;;;;;;;17.73;7.63;;;;;;;14.48;15.75;99830.06;5053568;28;20041;-57
2022/03/24 09:53:19;;;;;;;12.85;6.95;;;;;;;14.46;15.56;99820.41;5071167;28;20064;-57
2022/03/24 09:55:49;;;;;;;17.50;7.68;;;;;;;14.48;15.64;99819.28;5071070;28;20075;-55
2022/03/24 09:58:14;;;;;;;16.60;7.88;;;;;;;14.39;15.65;99833.63;5071687;28;20517;-56
2022/03/24 10:00:40;;;;;;;14.35;8.55;;;;;;;14.40;15.81;99821.84;5071457;28;20024;-56
2022/03/24 10:03:14;;;;;;;20.55;8.73;;;;;;;14.49;16.30;99820.09;5070997;28;20071;-53
2022/03/24 10:06:07;;;;;;;13.25;7.70;;;;;;;14.65;15.79;99819.44;5070851;28;20119;-55
2022/03/24 10:08:36;;;;;;;17.50;9.00;;;;;;;14.49;15.65;99829.06;5071287;28;20035;-54
2022/03/24 10:11:04;;;;;;;18.20;9.25;;;;;;;14.31;15.90;99820.88;5070288;28;20113;-56
2022/03/24 10:13:51;;;;;;;14.55;8.93;;;;;;;14.24;15.77;99818.97;5070219;28;20035;-53
2022/03/24 10:16:41;;;;;;;18.83;8.52;;;;;;;14.15;15.62;99820.69;5070880;28;20466;-56
2022/03/24 10:19:09;;;;;;;19.08;8.35;;;;;;;13.84;16.24;99821.75;5070764;28;20120;-56
2022/03/24 10:21:37;;;;;;;13.63;8.57;;;;;;;13.77;17.09;99809.88;5070664;28;20538;-56
2022/03/24 10:24:11;;;;;;;17.08;8.50;;;;;;;13.95;16.19;99825.25;5070419;28;20032;-51
2022/03/24 10:26:47;;;;;;;14.23;8.30;;;;;;;14.03;16.19;99830.78;5070621;28;20025;-55
2022/03/24 10:29:23;;;;;;;18.90;8.23;;;;;;;13.98;16.23;99812.38;5070813;28;20394;-56
2022/03/24 10:31:57;;;;;;;15.60;8.18;;;;;;;14.03;15.77;99831.63;5070813;28;20039;-53
2022/03/24 10:34:42;;;;;;;15.48;7.95;;;;;;;13.89;15.90;99827.56;5070547;28;20040;-56
2022/03/24 10:37:12;;;;;;;19.58;8.23;;;;;;;13.50;16.39;99798.03;5070533;28;20140;-53
2022/03/24 10:39:40;;;;;;;15.48;7.72;;;;;;;13.62;16.58;99826.47;5070585;28;20055;-54
2022/03/24 10:42:17;;;;;;;17.73;7.88;;;;;;;13.73;16.30;99828.16;5070350;28;20107;-54
2022/03/24 10:45:17;;;;;;;24.02;8.35;;;;;;;13.72;15.87;99822.91;5070038;28;20450;-53
2022/03/24 10:47:52;;;;;;;17.92;7.82;;;;;;;13.62;16.46;99826.47;5052370;28;20557;-52
2022/03/24 10:50:26;;;;;;;14.40;8.00;;;;;;;13.49;16.49;99802.56;5071102;28;20024;-55
2022/03/24 10:52:53;;;;;;;17.23;8.15;;;;;;;13.39;16.88;99820.53;5070048;28;20188;-56
2022/03/24 10:55:32;;;;;;;15.40;7.60;;;;;;;13.45;16.62;99814.59;5070474;28;20097;-56
2022/03/24 10:57:58;;;;;;;14.10;7.85;;;;;;;13.53;17.00;99818.41;5070738;28;20031;-55
2022/03/24 11:00:24;;;;;;;16.30;8.48;;;;;;;13.47;16.58;99798.31;5070278;28;20036;-52
2022/03/24 11:02:50;;;;;;;17.45;8.10;;;;;;;13.72;16.58;99814.84;5070369;28;20111;-55
2022/03/24 11:05:16;;;;;;;19.63;8.48;;;;;;;13.78;16.05;99809.72;5070423;28;20119;-54
2022/03/24 11:07:51;;;;;;;12.45;8.90;;;;;;;13.83;16.37;99814.69;5070342;28;20032;-54
2022/03/24 11:10:16;;;;;;;17.48;8.52;;;;;;;13.73;16.46;99803.06;5070014;28;20028;-55
2022/03/24 11:12:43;;;;;;;17.75;8.07;;;;;;;13.75;16.71;99817.25;5066065;28;20043;-64
2022/03/24 11:15:10;;;;;;;14.02;8.85;;;;;;;13.73;16.74;99809.31;5067724;28;20346;-54
2022/03/24 11:17:39;;;;;;;16.30;8.32;;;;;;;13.81;17.04;99815.81;5070148;28;20071;-54
2022/03/24 11:20:23;;;;;;;16.00;8.93;;;;;;;13.86;16.98;99811.69;5069621;28;20031;-53
2022/03/24 11:22:48;;;;;;;17.30;8.82;;;;;;;13.87;17.03;99810.69;5070340;28;20035;-54
2022/03/24 11:25:15;;;;;;;15.95;8.60;;;;;;;13.88;16.96;99812.41;5073030;28;20024;-67
2022/03/24 11:27:41;;;;;;;18.17;9.10;;;;;;;13.90;16.68;99805.03;5059449;28;20082;-60